sensor_id;sensor_type;location;lat;lon;timestamp;temperature;humidity
20658;DHT22;10488;50.846;4.078;2023-08-20T00:00:24;18.80;99.90
20658;DHT22;10488;50.846;4.078;2023-08-20T00:02:56;18.90;99.90
20658;DHT22;10488;50.846;4.078;2023-08-20T00:05:23;18.90;99.90
20658;DHT22;10488;50.846;4.078;2023-08-20T00:07:49;18.80;99.90
20658;DHT22;10488;50.846;4.078;2023-08-20T00:10:15;18.90;99.90
20658;DHT22;10488;50.846;4.078;2023-08-20T00:12:40;18.80;99.90
20658;DHT22;10488;50.846;4.078;2023-08-20T00:15:06;18.60;99.90
20658;DHT22;10488;50.846;4.078;2023-08-20T00:17:34;18.60;99.90
20658;DHT22;10488;50.846;4.078;2023-08-20T00:20:00;18.60;99.90
20658;DHT22;10488;50.846;4.078;2023-08-20T00:22:26;18.90;99.90
20658;DHT22;10488;50.846;4.078;2023-08-20T00:24:53;19.00;99.90
20658;DHT22;10488;50.846;4.078;2023-08-20T00:27:20;19.00;99.90
20658;DHT22;10488;50.846;4.078;2023-08-20T00:29:46;19.10;99.90
20658;DHT22;10488;50.846;4.078;2023-08-20T00:32:12;19.30;99.90
20658;DHT22;10488;50.846;4.078;2023-08-20T00:34:37;19.40;99.90
20658;DHT22;10488;50.846;4.078;2023-08-20T00:37:03;19.20;99.90
20658;DHT22;10488;50.846;4.078;2023-08-20T00:39:30;19.20;99.90
20658;DHT22;10488;50.846;4.078;2023-08-20T00:41:56;19.20;99.90
20658;DHT22;10488;50.846;4.078;2023-08-20T00:44:21;19.30;99.90
20658;DHT22;10488;50.846;4.078;2023-08-20T00:46:47;19.20;99.90
20658;DHT22;10488;50.846;4.078;2023-08-20T00:49:13;19.30;99.90
20658;DHT22;10488;50.846;4.078;2023-08-20T00:51:39;19.40;99.90
20658;DHT22;10488;50.846;4.078;2023-08-20T00:54:05;19.50;99.90
20658;DHT22;10488;50.846;4.078;2023-08-20T00:56:31;19.60;99.90
20658;DHT22;10488;50.846;4.078;2023-08-20T00:58:57;19.80;99.90
20658;DHT22;10488;50.846;4.078;2023-08-20T01:01:23;19.70;99.90
20658;DHT22;10488;50.846;4.078;2023-08-20T01:03:49;19.60;99.90
20658;DHT22;10488;50.846;4.078;2023-08-20T01:06:44;19.60;99.90
20658;DHT22;10488;50.846;4.078;2023-08-20T01:12:03;19.60;99.90
20658;DHT22;10488;50.846;4.078;2023-08-20T01:14:29;19.50;99.90
20658;DHT22;10488;50.846;4.078;2023-08-20T01:16:55;19.40;99.90
20658;DHT22;10488;50.846;4.078;2023-08-20T01:19:21;19.50;99.90
20658;DHT22;10488;50.846;4.078;2023-08-20T01:24:43;19.50;99.90
20658;DHT22;10488;50.846;4.078;2023-08-20T01:28:03;19.60;99.90
20658;DHT22;10488;50.846;4.078;2023-08-20T01:30:21;19.70;99.90
20658;DHT22;10488;50.846;4.078;2023-08-20T01:32:49;19.40;99.90
20658;DHT22;10488;50.846;4.078;2023-08-20T01:35:16;19.10;99.90
20658;DHT22;10488;50.846;4.078;2023-08-20T01:37:42;18.90;99.90
20658;DHT22;10488;50.846;4.078;2023-08-20T01:40:09;18.80;99.90
20658;DHT22;10488;50.846;4.078;2023-08-20T01:42:39;18.80;99.90
20658;DHT22;10488;50.846;4.078;2023-08-20T01:45:06;18.90;99.90
20658;DHT22;10488;50.846;4.078;2023-08-20T01:47:32;19.00;99.90
20658;DHT22;10488;50.846;4.078;2023-08-20T01:49:59;19.00;99.90
20658;DHT22;10488;50.846;4.078;2023-08-20T01:52:25;18.80;99.90
20658;DHT22;10488;50.846;4.078;2023-08-20T01:54:51;18.90;99.90
20658;DHT22;10488;50.846;4.078;2023-08-20T01:57:18;18.90;99.90
20658;DHT22;10488;50.846;4.078;2023-08-20T01:59:44;18.90;99.90
20658;DHT22;10488;50.846;4.078;2023-08-20T02:02:09;19.00;99.90
20658;DHT22;10488;50.846;4.078;2023-08-20T02:04:35;19.00;99.90
20658;DHT22;10488;50.846;4.078;2023-08-20T02:07:01;18.90;99.90
20658;DHT22;10488;50.846;4.078;2023-08-20T02:09:26;19.00;99.90
20658;DHT22;10488;50.846;4.078;2023-08-20T02:11:52;18.90;99.90
20658;DHT22;10488;50.846;4.078;2023-08-20T02:14:18;18.70;99.90
20658;DHT22;10488;50.846;4.078;2023-08-20T02:16:45;18.50;99.90
20658;DHT22;10488;50.846;4.078;2023-08-20T02:19:11;18.50;99.90
20658;DHT22;10488;50.846;4.078;2023-08-20T02:21:37;18.50;99.90
20658;DHT22;10488;50.846;4.078;2023-08-20T02:24:03;18.50;99.90
20658;DHT22;10488;50.846;4.078;2023-08-20T02:26:29;18.50;99.90
20658;DHT22;10488;50.846;4.078;2023-08-20T02:28:54;18.30;99.90
20658;DHT22;10488;50.846;4.078;2023-08-20T02:31:20;18.30;99.90
20658;DHT22;10488;50.846;4.078;2023-08-20T02:33:46;18.10;99.90
20658;DHT22;10488;50.846;4.078;2023-08-20T02:36:12;18.10;99.90
20658;DHT22;10488;50.846;4.078;2023-08-20T02:38:38;18.10;99.90
20658;DHT22;10488;50.846;4.078;2023-08-20T02:41:04;18.10;99.90
20658;DHT22;10488;50.846;4.078;2023-08-20T02:43:30;18.00;99.90
20658;DHT22;10488;50.846;4.078;2023-08-20T02:45:55;18.00;99.90
20658;DHT22;10488;50.846;4.078;2023-08-20T02:48:21;18.10;99.90
20658;DHT22;10488;50.846;4.078;2023-08-20T02:50:55;18.10;99.90
20658;DHT22;10488;50.846;4.078;2023-08-20T02:53:21;17.90;99.90
20658;DHT22;10488;50.846;4.078;2023-08-20T02:55:47;17.80;99.90
20658;DHT22;10488;50.846;4.078;2023-08-20T02:58:12;17.80;99.90
20658;DHT22;10488;50.846;4.078;2023-08-20T03:00:38;17.80;99.90
20658;DHT22;10488;50.846;4.078;2023-08-20T03:03:04;17.80;99.90
20658;DHT22;10488;50.846;4.078;2023-08-20T03:05:33;17.70;99.90
20658;DHT22;10488;50.846;4.078;2023-08-20T03:07:59;17.70;99.90
20658;DHT22;10488;50.846;4.078;2023-08-20T03:10:25;17.70;99.90
20658;DHT22;10488;50.846;4.078;2023-08-20T03:12:51;17.80;99.90
20658;DHT22;10488;50.846;4.078;2023-08-20T03:15:17;18.00;99.90
20658;DHT22;10488;50.846;4.078;2023-08-20T03:17:42;18.00;99.90
20658;DHT22;10488;50.846;4.078;2023-08-20T03:20:08;17.90;99.90
20658;DHT22;10488;50.846;4.078;2023-08-20T03:22:36;17.90;99.90
20658;DHT22;10488;50.846;4.078;2023-08-20T03:25:02;17.90;99.90
20658;DHT22;10488;50.846;4.078;2023-08-20T03:27:28;17.90;99.90
20658;DHT22;10488;50.846;4.078;2023-08-20T03:29:54;17.70;99.90
20658;DHT22;10488;50.846;4.078;2023-08-20T03:32:20;17.80;99.90
20658;DHT22;10488;50.846;4.078;2023-08-20T03:34:45;17.90;99.90
20658;DHT22;10488;50.846;4.078;2023-08-20T03:37:12;17.90;99.90
20658;DHT22;10488;50.846;4.078;2023-08-20T03:39:38;17.80;99.90
20658;DHT22;10488;50.846;4.078;2023-08-20T03:42:03;17.80;99.90
20658;DHT22;10488;50.846;4.078;2023-08-20T03:44:31;17.80;99.90
20658;DHT22;10488;50.846;4.078;2023-08-20T03:46:57;17.60;99.90
20658;DHT22;10488;50.846;4.078;2023-08-20T03:49:23;17.60;99.90
20658;DHT22;10488;50.846;4.078;2023-08-20T03:51:48;17.80;99.90
20658;DHT22;10488;50.846;4.078;2023-08-20T03:54:14;17.80;99.90
20658;DHT22;10488;50.846;4.078;2023-08-20T03:56:40;17.90;99.90
20658;DHT22;10488;50.846;4.078;2023-08-20T03:59:06;18.00;99.90
20658;DHT22;10488;50.846;4.078;2023-08-20T04:01:32;17.80;99.90
20658;DHT22;10488;50.846;4.078;2023-08-20T04:03:57;17.90;99.90
20658;DHT22;10488;50.846;4.078;2023-08-20T04:06:23;17.80;99.90
20658;DHT22;10488;50.846;4.078;2023-08-20T04:08:49;17.70;99.90
20658;DHT22;10488;50.846;4.078;2023-08-20T04:11:15;17.50;99.90
20658;DHT22;10488;50.846;4.078;2023-08-20T04:13:41;17.60;99.90
20658;DHT22;10488;50.846;4.078;2023-08-20T04:16:09;17.70;99.90
20658;DHT22;10488;50.846;4.078;2023-08-20T04:18:35;17.50;99.90
20658;DHT22;10488;50.846;4.078;2023-08-20T04:21:00;17.60;99.90
20658;DHT22;10488;50.846;4.078;2023-08-20T04:23:26;17.60;99.90
20658;DHT22;10488;50.846;4.078;2023-08-20T04:25:52;17.60;99.90
20658;DHT22;10488;50.846;4.078;2023-08-20T04:28:18;17.50;99.90
20658;DHT22;10488;50.846;4.078;2023-08-20T04:30:44;17.40;99.90
20658;DHT22;10488;50.846;4.078;2023-08-20T04:33:10;17.20;99.90
20658;DHT22;10488;50.846;4.078;2023-08-20T04:35:35;17.30;99.90
20658;DHT22;10488;50.846;4.078;2023-08-20T04:38:02;17.40;99.90
20658;DHT22;10488;50.846;4.078;2023-08-20T04:40:28;17.50;99.90
20658;DHT22;10488;50.846;4.078;2023-08-20T04:42:54;17.50;99.90
20658;DHT22;10488;50.846;4.078;2023-08-20T04:45:20;17.30;99.90
20658;DHT22;10488;50.846;4.078;2023-08-20T04:47:47;17.30;99.90
20658;DHT22;10488;50.846;4.078;2023-08-20T04:50:12;17.20;99.90
20658;DHT22;10488;50.846;4.078;2023-08-20T04:52:39;17.40;99.90
20658;DHT22;10488;50.846;4.078;2023-08-20T04:55:05;17.40;99.90
20658;DHT22;10488;50.846;4.078;2023-08-20T04:57:32;17.50;99.90
20658;DHT22;10488;50.846;4.078;2023-08-20T04:59:58;17.70;99.90
20658;DHT22;10488;50.846;4.078;2023-08-20T05:02:24;17.80;99.90
20658;DHT22;10488;50.846;4.078;2023-08-20T05:04:50;18.00;99.90
20658;DHT22;10488;50.846;4.078;2023-08-20T05:07:16;18.00;99.90
20658;DHT22;10488;50.846;4.078;2023-08-20T05:09:41;18.00;99.90
20658;DHT22;10488;50.846;4.078;2023-08-20T05:12:07;18.00;99.90
20658;DHT22;10488;50.846;4.078;2023-08-20T05:14:33;17.80;99.90
20658;DHT22;10488;50.846;4.078;2023-08-20T05:16:59;17.60;99.90
20658;DHT22;10488;50.846;4.078;2023-08-20T05:19:25;17.60;99.90
20658;DHT22;10488;50.846;4.078;2023-08-20T05:21:50;17.60;99.90
20658;DHT22;10488;50.846;4.078;2023-08-20T05:24:18;17.70;99.90
20658;DHT22;10488;50.846;4.078;2023-08-20T05:26:43;17.80;99.90
20658;DHT22;10488;50.846;4.078;2023-08-20T05:29:09;17.80;99.90
20658;DHT22;10488;50.846;4.078;2023-08-20T05:31:35;18.00;99.90
20658;DHT22;10488;50.846;4.078;2023-08-20T05:34:00;18.30;99.90
20658;DHT22;10488;50.846;4.078;2023-08-20T05:36:26;18.30;99.90
20658;DHT22;10488;50.846;4.078;2023-08-20T05:38:52;18.20;99.90
20658;DHT22;10488;50.846;4.078;2023-08-20T05:41:17;18.20;99.90
20658;DHT22;10488;50.846;4.078;2023-08-20T05:43:43;18.00;99.90
20658;DHT22;10488;50.846;4.078;2023-08-20T05:46:09;18.10;99.90
20658;DHT22;10488;50.846;4.078;2023-08-20T05:48:55;18.50;99.90
20658;DHT22;10488;50.846;4.078;2023-08-20T05:51:21;18.50;99.90
20658;DHT22;10488;50.846;4.078;2023-08-20T05:53:46;18.60;99.90
20658;DHT22;10488;50.846;4.078;2023-08-20T05:56:12;19.30;99.90
20658;DHT22;10488;50.846;4.078;2023-08-20T05:58:38;19.80;99.90
20658;DHT22;10488;50.846;4.078;2023-08-20T06:01:04;20.30;99.90
20658;DHT22;10488;50.846;4.078;2023-08-20T06:03:29;20.60;99.90
20658;DHT22;10488;50.846;4.078;2023-08-20T06:06:00;21.90;99.90
20658;DHT22;10488;50.846;4.078;2023-08-20T06:08:25;23.00;99.90
20658;DHT22;10488;50.846;4.078;2023-08-20T06:10:51;23.80;99.90
20658;DHT22;10488;50.846;4.078;2023-08-20T06:13:17;24.40;99.90
20658;DHT22;10488;50.846;4.078;2023-08-20T06:15:43;23.60;99.90
20658;DHT22;10488;50.846;4.078;2023-08-20T06:18:09;23.10;99.90
20658;DHT22;10488;50.846;4.078;2023-08-20T06:20:34;24.10;99.90
20658;DHT22;10488;50.846;4.078;2023-08-20T06:23:00;24.40;99.90
20658;DHT22;10488;50.846;4.078;2023-08-20T06:25:26;23.90;99.90
20658;DHT22;10488;50.846;4.078;2023-08-20T06:27:51;23.70;99.90
20658;DHT22;10488;50.846;4.078;2023-08-20T06:30:17;24.80;99.90
20658;DHT22;10488;50.846;4.078;2023-08-20T06:32:46;24.60;99.90
20658;DHT22;10488;50.846;4.078;2023-08-20T06:35:12;24.50;99.90
20658;DHT22;10488;50.846;4.078;2023-08-20T06:37:40;24.80;99.90
20658;DHT22;10488;50.846;4.078;2023-08-20T06:40:07;24.20;99.90
20658;DHT22;10488;50.846;4.078;2023-08-20T06:42:33;24.60;99.90
20658;DHT22;10488;50.846;4.078;2023-08-20T06:44:59;24.10;99.90
20658;DHT22;10488;50.846;4.078;2023-08-20T06:47:24;24.30;99.90
20658;DHT22;10488;50.846;4.078;2023-08-20T06:49:50;24.70;99.90
20658;DHT22;10488;50.846;4.078;2023-08-20T06:52:16;24.40;99.90
20658;DHT22;10488;50.846;4.078;2023-08-20T06:54:42;24.90;99.90
20658;DHT22;10488;50.846;4.078;2023-08-20T06:57:08;24.90;99.90
20658;DHT22;10488;50.846;4.078;2023-08-20T06:59:33;25.30;99.90
20658;DHT22;10488;50.846;4.078;2023-08-20T07:01:59;25.30;99.90
20658;DHT22;10488;50.846;4.078;2023-08-20T07:04:25;25.40;99.90
20658;DHT22;10488;50.846;4.078;2023-08-20T07:06:51;25.00;99.90
20658;DHT22;10488;50.846;4.078;2023-08-20T07:09:17;26.10;99.90
20658;DHT22;10488;50.846;4.078;2023-08-20T07:11:43;25.50;99.90
20658;DHT22;10488;50.846;4.078;2023-08-20T07:14:09;26.60;99.90
20658;DHT22;10488;50.846;4.078;2023-08-20T07:16:35;27.30;99.90
20658;DHT22;10488;50.846;4.078;2023-08-20T07:19:00;27.10;99.90
20658;DHT22;10488;50.846;4.078;2023-08-20T07:21:26;27.10;99.90
20658;DHT22;10488;50.846;4.078;2023-08-20T07:23:52;27.50;99.90
20658;DHT22;10488;50.846;4.078;2023-08-20T07:26:18;28.00;99.90
20658;DHT22;10488;50.846;4.078;2023-08-20T07:28:43;29.10;99.90
20658;DHT22;10488;50.846;4.078;2023-08-20T07:31:29;27.30;99.90
20658;DHT22;10488;50.846;4.078;2023-08-20T07:33:56;26.00;99.90
20658;DHT22;10488;50.846;4.078;2023-08-20T07:36:24;25.80;99.90
20658;DHT22;10488;50.846;4.078;2023-08-20T07:38:51;25.50;99.90
20658;DHT22;10488;50.846;4.078;2023-08-20T07:41:17;26.20;99.90
20658;DHT22;10488;50.846;4.078;2023-08-20T07:43:43;26.70;99.90
20658;DHT22;10488;50.846;4.078;2023-08-20T07:46:09;27.70;99.90
20658;DHT22;10488;50.846;4.078;2023-08-20T07:48:35;27.00;99.90
20658;DHT22;10488;50.846;4.078;2023-08-20T07:51:04;26.10;99.90
20658;DHT22;10488;50.846;4.078;2023-08-20T07:53:31;26.90;99.90
20658;DHT22;10488;50.846;4.078;2023-08-20T07:55:56;27.30;99.90
20658;DHT22;10488;50.846;4.078;2023-08-20T07:58:22;25.90;99.90
20658;DHT22;10488;50.846;4.078;2023-08-20T08:00:48;26.60;99.90
20658;DHT22;10488;50.846;4.078;2023-08-20T08:03:14;26.20;99.90
20658;DHT22;10488;50.846;4.078;2023-08-20T08:05:49;26.70;99.90
20658;DHT22;10488;50.846;4.078;2023-08-20T08:08:18;26.70;99.90
20658;DHT22;10488;50.846;4.078;2023-08-20T08:10:45;26.60;99.90
20658;DHT22;10488;50.846;4.078;2023-08-20T08:13:15;26.50;99.90
20658;DHT22;10488;50.846;4.078;2023-08-20T08:15:41;27.60;99.90
20658;DHT22;10488;50.846;4.078;2023-08-20T08:18:07;27.20;99.90
20658;DHT22;10488;50.846;4.078;2023-08-20T08:20:34;27.70;99.90
20658;DHT22;10488;50.846;4.078;2023-08-20T08:23:00;29.10;99.90
20658;DHT22;10488;50.846;4.078;2023-08-20T08:25:26;29.50;99.90
20658;DHT22;10488;50.846;4.078;2023-08-20T08:27:52;27.60;99.90
20658;DHT22;10488;50.846;4.078;2023-08-20T08:30:18;27.30;99.90
20658;DHT22;10488;50.846;4.078;2023-08-20T08:32:44;28.20;99.90
20658;DHT22;10488;50.846;4.078;2023-08-20T08:35:10;28.30;99.90
20658;DHT22;10488;50.846;4.078;2023-08-20T08:37:35;28.40;99.90
20658;DHT22;10488;50.846;4.078;2023-08-20T08:40:02;26.80;99.90
20658;DHT22;10488;50.846;4.078;2023-08-20T08:42:32;25.80;99.90
20658;DHT22;10488;50.846;4.078;2023-08-20T08:44:59;25.30;99.90
20658;DHT22;10488;50.846;4.078;2023-08-20T08:47:25;25.50;99.90
20658;DHT22;10488;50.846;4.078;2023-08-20T08:49:52;26.60;99.90
20658;DHT22;10488;50.846;4.078;2023-08-20T08:52:22;27.10;99.90
20658;DHT22;10488;50.846;4.078;2023-08-20T08:54:48;27.50;99.90
20658;DHT22;10488;50.846;4.078;2023-08-20T08:57:15;27.30;99.90
20658;DHT22;10488;50.846;4.078;2023-08-20T08:59:41;26.40;99.90
20658;DHT22;10488;50.846;4.078;2023-08-20T09:02:09;25.70;99.90
20658;DHT22;10488;50.846;4.078;2023-08-20T09:04:41;26.40;99.90
20658;DHT22;10488;50.846;4.078;2023-08-20T09:07:16;26.80;99.90
20658;DHT22;10488;50.846;4.078;2023-08-20T09:09:46;25.50;99.90
20658;DHT22;10488;50.846;4.078;2023-08-20T09:12:16;25.30;99.90
20658;DHT22;10488;50.846;4.078;2023-08-20T09:14:52;25.70;99.90
20658;DHT22;10488;50.846;4.078;2023-08-20T09:17:18;27.20;99.90
20658;DHT22;10488;50.846;4.078;2023-08-20T09:19:47;27.00;99.90
20658;DHT22;10488;50.846;4.078;2023-08-20T09:22:14;26.10;99.90
20658;DHT22;10488;50.846;4.078;2023-08-20T09:24:42;26.50;99.90
20658;DHT22;10488;50.846;4.078;2023-08-20T09:27:08;27.20;99.90
20658;DHT22;10488;50.846;4.078;2023-08-20T09:29:47;26.70;99.90
20658;DHT22;10488;50.846;4.078;2023-08-20T09:32:24;28.10;99.90
20658;DHT22;10488;50.846;4.078;2023-08-20T09:34:52;27.30;99.90
20658;DHT22;10488;50.846;4.078;2023-08-20T09:37:19;27.30;99.90
20658;DHT22;10488;50.846;4.078;2023-08-20T09:39:45;27.90;99.90
20658;DHT22;10488;50.846;4.078;2023-08-20T09:42:12;27.20;99.90
20658;DHT22;10488;50.846;4.078;2023-08-20T09:44:40;27.50;99.90
20658;DHT22;10488;50.846;4.078;2023-08-20T09:47:13;27.40;99.90
20658;DHT22;10488;50.846;4.078;2023-08-20T09:49:43;27.50;99.90
20658;DHT22;10488;50.846;4.078;2023-08-20T09:52:25;27.70;99.90
20658;DHT22;10488;50.846;4.078;2023-08-20T09:55:08;27.70;99.90
20658;DHT22;10488;50.846;4.078;2023-08-20T09:57:41;26.50;99.90
20658;DHT22;10488;50.846;4.078;2023-08-20T10:00:11;26.10;99.90
20658;DHT22;10488;50.846;4.078;2023-08-20T10:02:38;26.60;99.90
20658;DHT22;10488;50.846;4.078;2023-08-20T10:05:05;26.60;99.90
20658;DHT22;10488;50.846;4.078;2023-08-20T10:07:32;26.60;99.90
20658;DHT22;10488;50.846;4.078;2023-08-20T10:09:59;26.70;99.90
20658;DHT22;10488;50.846;4.078;2023-08-20T10:12:29;27.00;99.90
20658;DHT22;10488;50.846;4.078;2023-08-20T10:14:56;27.10;99.90
20658;DHT22;10488;50.846;4.078;2023-08-20T10:17:24;26.80;99.90
20658;DHT22;10488;50.846;4.078;2023-08-20T10:19:52;26.80;99.90
20658;DHT22;10488;50.846;4.078;2023-08-20T10:22:19;27.10;99.90
20658;DHT22;10488;50.846;4.078;2023-08-20T10:27:30;27.10;99.90
20658;DHT22;10488;50.846;4.078;2023-08-20T10:30:01;27.10;99.90
20658;DHT22;10488;50.846;4.078;2023-08-20T10:32:48;26.40;99.90
20658;DHT22;10488;50.846;4.078;2023-08-20T10:38:06;26.60;99.90
20658;DHT22;10488;50.846;4.078;2023-08-20T10:48:32;27.50;99.90
20658;DHT22;10488;50.846;4.078;2023-08-20T10:51:06;27.30;99.90
20658;DHT22;10488;50.846;4.078;2023-08-20T10:53:32;27.10;99.90
20658;DHT22;10488;50.846;4.078;2023-08-20T10:56:08;26.20;99.90
20658;DHT22;10488;50.846;4.078;2023-08-20T10:58:34;26.10;99.90
20658;DHT22;10488;50.846;4.078;2023-08-20T11:01:25;26.10;99.90
20658;DHT22;10488;50.846;4.078;2023-08-20T11:03:51;26.30;99.90
20658;DHT22;10488;50.846;4.078;2023-08-20T11:06:18;26.50;99.90
20658;DHT22;10488;50.846;4.078;2023-08-20T11:08:44;27.00;99.90
20658;DHT22;10488;50.846;4.078;2023-08-20T11:11:11;26.80;99.90
20658;DHT22;10488;50.846;4.078;2023-08-20T11:13:37;27.00;99.90
20658;DHT22;10488;50.846;4.078;2023-08-20T11:16:04;27.00;99.90
20658;DHT22;10488;50.846;4.078;2023-08-20T11:18:33;26.60;99.90
20658;DHT22;10488;50.846;4.078;2023-08-20T11:20:59;26.90;99.90
20658;DHT22;10488;50.846;4.078;2023-08-20T11:23:25;26.90;99.90
20658;DHT22;10488;50.846;4.078;2023-08-20T11:25:51;27.00;99.90
20658;DHT22;10488;50.846;4.078;2023-08-20T11:28:17;26.90;99.90
20658;DHT22;10488;50.846;4.078;2023-08-20T11:30:43;27.20;99.90
20658;DHT22;10488;50.846;4.078;2023-08-20T11:33:09;27.60;99.90
20658;DHT22;10488;50.846;4.078;2023-08-20T11:35:35;27.70;99.90
20658;DHT22;10488;50.846;4.078;2023-08-20T11:38:03;27.90;99.90
20658;DHT22;10488;50.846;4.078;2023-08-20T11:40:29;28.00;99.90
20658;DHT22;10488;50.846;4.078;2023-08-20T11:42:55;27.80;99.90
20658;DHT22;10488;50.846;4.078;2023-08-20T11:45:21;28.00;99.90
20658;DHT22;10488;50.846;4.078;2023-08-20T11:47:47;27.90;99.90
20658;DHT22;10488;50.846;4.078;2023-08-20T11:50:12;28.20;99.90
20658;DHT22;10488;50.846;4.078;2023-08-20T11:52:38;28.40;99.90
20658;DHT22;10488;50.846;4.078;2023-08-20T11:55:07;28.30;99.90
20658;DHT22;10488;50.846;4.078;2023-08-20T11:57:34;28.50;99.90
20658;DHT22;10488;50.846;4.078;2023-08-20T12:00:04;28.90;99.90
20658;DHT22;10488;50.846;4.078;2023-08-20T12:02:34;29.00;99.90
20658;DHT22;10488;50.846;4.078;2023-08-20T12:05:00;29.00;99.90
20658;DHT22;10488;50.846;4.078;2023-08-20T12:07:26;28.60;99.90
20658;DHT22;10488;50.846;4.078;2023-08-20T12:09:53;28.60;99.90
20658;DHT22;10488;50.846;4.078;2023-08-20T12:12:19;29.10;99.90
20658;DHT22;10488;50.846;4.078;2023-08-20T12:14:48;28.80;99.90
20658;DHT22;10488;50.846;4.078;2023-08-20T12:17:18;28.70;99.90
20658;DHT22;10488;50.846;4.078;2023-08-20T12:19:44;28.70;99.90
20658;DHT22;10488;50.846;4.078;2023-08-20T12:22:10;28.10;99.90
20658;DHT22;10488;50.846;4.078;2023-08-20T12:24:36;27.90;99.90
20658;DHT22;10488;50.846;4.078;2023-08-20T12:27:01;27.50;99.90
20658;DHT22;10488;50.846;4.078;2023-08-20T12:29:29;27.40;99.90
20658;DHT22;10488;50.846;4.078;2023-08-20T12:31:55;27.90;99.90
20658;DHT22;10488;50.846;4.078;2023-08-20T12:34:20;28.30;99.90
20658;DHT22;10488;50.846;4.078;2023-08-20T12:36:51;28.60;99.90
20658;DHT22;10488;50.846;4.078;2023-08-20T12:39:17;28.40;99.90
20658;DHT22;10488;50.846;4.078;2023-08-20T12:41:42;28.70;99.90
20658;DHT22;10488;50.846;4.078;2023-08-20T12:44:08;28.80;99.90
20658;DHT22;10488;50.846;4.078;2023-08-20T12:46:34;28.80;99.90
20658;DHT22;10488;50.846;4.078;2023-08-20T12:49:00;28.70;99.90
20658;DHT22;10488;50.846;4.078;2023-08-20T12:51:26;28.80;99.90
20658;DHT22;10488;50.846;4.078;2023-08-20T12:53:52;29.20;99.90
20658;DHT22;10488;50.846;4.078;2023-08-20T12:56:17;28.60;99.90
20658;DHT22;10488;50.846;4.078;2023-08-20T12:58:43;28.80;99.90
20658;DHT22;10488;50.846;4.078;2023-08-20T13:01:09;29.20;99.90
20658;DHT22;10488;50.846;4.078;2023-08-20T13:03:35;29.70;99.90
20658;DHT22;10488;50.846;4.078;2023-08-20T13:06:01;29.70;99.90
20658;DHT22;10488;50.846;4.078;2023-08-20T13:08:27;29.80;99.90
20658;DHT22;10488;50.846;4.078;2023-08-20T13:10:56;29.70;99.90
20658;DHT22;10488;50.846;4.078;2023-08-20T13:13:22;29.40;99.90
20658;DHT22;10488;50.846;4.078;2023-08-20T13:15:50;29.60;99.90
20658;DHT22;10488;50.846;4.078;2023-08-20T13:18:16;29.70;99.90
20658;DHT22;10488;50.846;4.078;2023-08-20T13:20:43;30.00;99.90
20658;DHT22;10488;50.846;4.078;2023-08-20T13:23:09;29.80;99.90
20658;DHT22;10488;50.846;4.078;2023-08-20T13:25:35;29.90;99.90
20658;DHT22;10488;50.846;4.078;2023-08-20T13:28:01;29.80;99.90
20658;DHT22;10488;50.846;4.078;2023-08-20T13:30:27;30.00;99.90
20658;DHT22;10488;50.846;4.078;2023-08-20T13:32:52;30.20;99.90
20658;DHT22;10488;50.846;4.078;2023-08-20T13:35:18;30.70;99.90
20658;DHT22;10488;50.846;4.078;2023-08-20T13:37:44;30.90;99.90
20658;DHT22;10488;50.846;4.078;2023-08-20T13:40:11;31.00;99.90
20658;DHT22;10488;50.846;4.078;2023-08-20T13:42:37;30.90;99.90
20658;DHT22;10488;50.846;4.078;2023-08-20T13:45:03;30.80;99.90
20658;DHT22;10488;50.846;4.078;2023-08-20T13:47:29;30.60;99.90
20658;DHT22;10488;50.846;4.078;2023-08-20T13:49:55;29.80;99.90
20658;DHT22;10488;50.846;4.078;2023-08-20T13:52:20;29.80;99.90
20658;DHT22;10488;50.846;4.078;2023-08-20T13:54:46;30.30;99.90
20658;DHT22;10488;50.846;4.078;2023-08-20T13:57:12;30.50;99.90
20658;DHT22;10488;50.846;4.078;2023-08-20T13:59:38;30.40;99.90
20658;DHT22;10488;50.846;4.078;2023-08-20T14:02:04;30.10;99.90
20658;DHT22;10488;50.846;4.078;2023-08-20T14:04:30;30.10;99.90
20658;DHT22;10488;50.846;4.078;2023-08-20T14:06:56;30.10;99.90
20658;DHT22;10488;50.846;4.078;2023-08-20T14:09:22;30.30;99.90
20658;DHT22;10488;50.846;4.078;2023-08-20T14:11:48;30.50;99.90
20658;DHT22;10488;50.846;4.078;2023-08-20T14:14:13;29.80;99.90
20658;DHT22;10488;50.846;4.078;2023-08-20T14:16:39;29.90;99.90
20658;DHT22;10488;50.846;4.078;2023-08-20T14:19:05;29.50;99.90
20658;DHT22;10488;50.846;4.078;2023-08-20T14:21:31;29.50;99.90
20658;DHT22;10488;50.846;4.078;2023-08-20T14:23:56;29.20;99.90
20658;DHT22;10488;50.846;4.078;2023-08-20T14:26:22;28.90;99.90
20658;DHT22;10488;50.846;4.078;2023-08-20T14:28:48;28.70;99.90
20658;DHT22;10488;50.846;4.078;2023-08-20T14:31:14;28.80;99.90
20658;DHT22;10488;50.846;4.078;2023-08-20T14:33:40;28.60;99.90
20658;DHT22;10488;50.846;4.078;2023-08-20T14:36:05;28.90;99.90
20658;DHT22;10488;50.846;4.078;2023-08-20T14:38:32;29.50;99.90
20658;DHT22;10488;50.846;4.078;2023-08-20T14:41:01;29.40;99.90
20658;DHT22;10488;50.846;4.078;2023-08-20T14:43:28;28.70;99.90
20658;DHT22;10488;50.846;4.078;2023-08-20T14:45:54;28.60;99.90
20658;DHT22;10488;50.846;4.078;2023-08-20T14:48:21;28.80;99.90
20658;DHT22;10488;50.846;4.078;2023-08-20T14:50:47;28.80;99.90
20658;DHT22;10488;50.846;4.078;2023-08-20T14:53:14;28.50;99.90
20658;DHT22;10488;50.846;4.078;2023-08-20T14:55:39;28.50;99.90
20658;DHT22;10488;50.846;4.078;2023-08-20T14:58:05;28.90;99.90
20658;DHT22;10488;50.846;4.078;2023-08-20T15:00:34;28.90;99.90
20658;DHT22;10488;50.846;4.078;2023-08-20T15:03:00;28.80;99.90
20658;DHT22;10488;50.846;4.078;2023-08-20T15:05:26;28.70;99.90
20658;DHT22;10488;50.846;4.078;2023-08-20T15:07:52;28.50;99.90
20658;DHT22;10488;50.846;4.078;2023-08-20T15:10:18;27.90;99.90
20658;DHT22;10488;50.846;4.078;2023-08-20T15:12:44;28.00;99.90
20658;DHT22;10488;50.846;4.078;2023-08-20T15:15:10;28.00;99.90
20658;DHT22;10488;50.846;4.078;2023-08-20T15:17:36;28.00;99.90
20658;DHT22;10488;50.846;4.078;2023-08-20T15:20:03;28.20;99.90
20658;DHT22;10488;50.846;4.078;2023-08-20T15:22:39;28.20;99.90
20658;DHT22;10488;50.846;4.078;2023-08-20T15:25:05;27.90;99.90
20658;DHT22;10488;50.846;4.078;2023-08-20T15:27:33;28.00;99.90
20658;DHT22;10488;50.846;4.078;2023-08-20T15:30:00;28.00;99.90
20658;DHT22;10488;50.846;4.078;2023-08-20T15:32:26;27.80;99.90
20658;DHT22;10488;50.846;4.078;2023-08-20T15:34:54;27.90;99.90
20658;DHT22;10488;50.846;4.078;2023-08-20T15:37:19;28.20;99.90
20658;DHT22;10488;50.846;4.078;2023-08-20T15:39:45;28.70;99.90
20658;DHT22;10488;50.846;4.078;2023-08-20T15:42:11;28.90;99.90
20658;DHT22;10488;50.846;4.078;2023-08-20T15:44:38;28.50;99.90
20658;DHT22;10488;50.846;4.078;2023-08-20T15:47:05;28.70;99.90